sensor_id;sensor_type;location;lat;lon;timestamp;pressure;altitude;pressure_sealevel;temperature;humidity
83023;BME280;72838;51.820;4.260;2023-11-18T00:00:07;102326.75;;;5.80;100.00
83023;BME280;72838;51.820;4.260;2023-11-18T00:02:37;102298.41;;;5.74;100.00
83023;BME280;72838;51.820;4.260;2023-11-18T00:05:18;102148.66;;;4.96;99.59
83023;BME280;72838;51.820;4.260;2023-11-18T00:07:55;102232.25;;;5.05;100.00
83023;BME280;72838;51.820;4.260;2023-11-18T00:10:20;102324.66;;;5.88;100.00
83023;BME280;72838;51.820;4.260;2023-11-18T00:12:46;102295.47;;;5.44;100.00
83023;BME280;72838;51.820;4.260;2023-11-18T00:15:12;102126.31;;;4.73;100.00
83023;BME280;72838;51.820;4.260;2023-11-18T00:17:40;102352.44;;;5.88;100.00
83023;BME280;72838;51.820;4.260;2023-11-18T00:20:06;102363.34;;;5.77;100.00
83023;BME280;72838;51.820;4.260;2023-11-18T00:22:38;102356.38;;;5.78;100.00
83023;BME280;72838;51.820;4.260;2023-11-18T00:25:05;102392.00;;;6.14;100.00
83023;BME280;72838;51.820;4.260;2023-11-18T00:27:32;102405.31;;;6.25;100.00
83023;BME280;72838;51.820;4.260;2023-11-18T00:30:01;102436.38;;;6.30;100.00
83023;BME280;72838;51.820;4.260;2023-11-18T00:32:26;102192.44;;;5.05;100.00
83023;BME280;72838;51.820;4.260;2023-11-18T00:34:54;102345.19;;;5.94;100.00
83023;BME280;72838;51.820;4.260;2023-11-18T00:37:20;102205.19;;;5.28;100.00
83023;BME280;72838;51.820;4.260;2023-11-18T00:39:45;102211.06;;;5.14;100.00
83023;BME280;72838;51.820;4.260;2023-11-18T00:42:11;102436.22;;;6.51;100.00
83023;BME280;72838;51.820;4.260;2023-11-18T00:44:39;102446.25;;;6.59;100.00
83023;BME280;72838;51.820;4.260;2023-11-18T00:47:08;102416.13;;;6.53;100.00
83023;BME280;72838;51.820;4.260;2023-11-18T00:49:42;102277.19;;;5.64;100.00
83023;BME280;72838;51.820;4.260;2023-11-18T00:52:08;102379.81;;;6.32;100.00
83023;BME280;72838;51.820;4.260;2023-11-18T00:54:34;102370.13;;;6.17;100.00
83023;BME280;72838;51.820;4.260;2023-11-18T00:57:00;102265.22;;;5.78;100.00
83023;BME280;72838;51.820;4.260;2023-11-18T00:59:25;102275.00;;;5.55;100.00
83023;BME280;72838;51.820;4.260;2023-11-18T01:01:58;102327.06;;;6.10;100.00
83023;BME280;72838;51.820;4.260;2023-11-18T01:04:24;102355.00;;;6.06;100.00
83023;BME280;72838;51.820;4.260;2023-11-18T01:06:51;102412.13;;;6.64;100.00
83023;BME280;72838;51.820;4.260;2023-11-18T01:09:16;102197.81;;;5.37;100.00
83023;BME280;72838;51.820;4.260;2023-11-18T01:11:42;102369.63;;;6.27;100.00
83023;BME280;72838;51.820;4.260;2023-11-18T01:14:07;102396.84;;;6.39;100.00
83023;BME280;72838;51.820;4.260;2023-11-18T01:16:33;102379.44;;;6.22;100.00
83023;BME280;72838;51.820;4.260;2023-11-18T01:19:01;102413.03;;;6.63;100.00
83023;BME280;72838;51.820;4.260;2023-11-18T01:21:27;102382.22;;;6.36;100.00
83023;BME280;72838;51.820;4.260;2023-11-18T01:23:52;102401.56;;;6.49;100.00
83023;BME280;72838;51.820;4.260;2023-11-18T01:26:18;102325.53;;;6.06;100.00
83023;BME280;72838;51.820;4.260;2023-11-18T01:28:43;102409.50;;;6.46;100.00
83023;BME280;72838;51.820;4.260;2023-11-18T01:31:10;102423.94;;;6.53;100.00
83023;BME280;72838;51.820;4.260;2023-11-18T01:33:37;102172.47;;;5.05;100.00
83023;BME280;72838;51.820;4.260;2023-11-18T01:36:11;102318.09;;;5.61;100.00
83023;BME280;72838;51.820;4.260;2023-11-18T01:38:38;102283.47;;;5.42;100.00
83023;BME280;72838;51.820;4.260;2023-11-18T01:41:07;102312.09;;;5.78;100.00
83023;BME280;72838;51.820;4.260;2023-11-18T01:43:33;102438.44;;;6.59;100.00
83023;BME280;72838;51.820;4.260;2023-11-18T01:46:09;102325.56;;;5.68;100.00
83023;BME280;72838;51.820;4.260;2023-11-18T01:48:41;102345.41;;;6.08;100.00
83023;BME280;72838;51.820;4.260;2023-11-18T01:51:18;102142.13;;;4.68;100.00
83023;BME280;72838;51.820;4.260;2023-11-18T01:53:59;102253.63;;;5.49;99.97
83023;BME280;72838;51.820;4.260;2023-11-18T01:59:58;102291.56;;;5.90;99.10
83023;BME280;72838;51.820;4.260;2023-11-18T02:02:30;102348.63;;;5.95;99.47
83023;BME280;72838;51.820;4.260;2023-11-18T02:04:55;102397.94;;;6.52;99.77
83023;BME280;72838;51.820;4.260;2023-11-18T02:07:21;102285.09;;;5.80;99.01
83023;BME280;72838;51.820;4.260;2023-11-18T02:09:55;102240.47;;;5.52;98.55
83023;BME280;72838;51.820;4.260;2023-11-18T02:13:00;102430.94;;;6.70;98.92
83023;BME280;72838;51.820;4.260;2023-11-18T02:15:33;102408.34;;;6.52;99.13
83023;BME280;72838;51.820;4.260;2023-11-18T02:18:02;102435.97;;;6.73;99.08
83023;BME280;72838;51.820;4.260;2023-11-18T02:20:28;102397.63;;;6.58;99.60
83023;BME280;72838;51.820;4.260;2023-11-18T02:22:57;102403.00;;;6.55;99.54
83023;BME280;72838;51.820;4.260;2023-11-18T02:25:24;102403.31;;;6.66;99.52
83023;BME280;72838;51.820;4.260;2023-11-18T02:27:57;102410.91;;;6.71;98.67
83023;BME280;72838;51.820;4.260;2023-11-18T02:30:32;102277.41;;;6.13;98.01
83023;BME280;72838;51.820;4.260;2023-11-18T02:33:05;102140.22;;;5.26;98.41
83023;BME280;72838;51.820;4.260;2023-11-18T02:35:51;102376.66;;;6.25;98.86
83023;BME280;72838;51.820;4.260;2023-11-18T02:38:21;102325.47;;;6.24;99.06
83023;BME280;72838;51.820;4.260;2023-11-18T02:40:51;102395.19;;;6.55;98.29
83023;BME280;72838;51.820;4.260;2023-11-18T02:43:18;102377.72;;;6.74;98.55
83023;BME280;72838;51.820;4.260;2023-11-18T02:45:44;102360.13;;;6.61;98.52
83023;BME280;72838;51.820;4.260;2023-11-18T02:48:12;102296.38;;;6.16;98.13
83023;BME280;72838;51.820;4.260;2023-11-18T02:50:40;102323.50;;;6.46;98.91
83023;BME280;72838;51.820;4.260;2023-11-18T02:53:08;102335.53;;;6.49;98.48
83023;BME280;72838;51.820;4.260;2023-11-18T02:55:34;102278.25;;;5.78;98.85
83023;BME280;72838;51.820;4.260;2023-11-18T02:58:00;102329.78;;;6.42;98.73
83023;BME280;72838;51.820;4.260;2023-11-18T03:00:27;102331.63;;;6.40;98.79
83023;BME280;72838;51.820;4.260;2023-11-18T03:03:11;102087.75;;;4.82;98.67
83023;BME280;72838;51.820;4.260;2023-11-18T03:05:37;102370.06;;;6.35;98.99
83023;BME280;72838;51.820;4.260;2023-11-18T03:08:05;102357.53;;;6.61;98.94
83023;BME280;72838;51.820;4.260;2023-11-18T03:10:38;102221.91;;;5.41;99.57
83023;BME280;72838;51.820;4.260;2023-11-18T03:13:10;102312.94;;;5.97;99.68
83023;BME280;72838;51.820;4.260;2023-11-18T03:15:36;102308.38;;;6.19;99.77
83023;BME280;72838;51.820;4.260;2023-11-18T03:18:03;102350.75;;;6.39;99.33
83023;BME280;72838;51.820;4.260;2023-11-18T03:20:31;102277.72;;;5.90;99.79
83023;BME280;72838;51.820;4.260;2023-11-18T03:23:00;102301.75;;;5.95;99.29
83023;BME280;72838;51.820;4.260;2023-11-18T03:25:28;102168.72;;;5.29;99.00
83023;BME280;72838;51.820;4.260;2023-11-18T03:27:53;102089.50;;;5.01;99.36
83023;BME280;72838;51.820;4.260;2023-11-18T03:30:20;102331.94;;;6.51;99.02
83023;BME280;72838;51.820;4.260;2023-11-18T03:32:45;102211.34;;;5.62;98.65
83023;BME280;72838;51.820;4.260;2023-11-18T03:35:11;102305.41;;;6.26;98.31
83023;BME280;72838;51.820;4.260;2023-11-18T03:37:37;102302.31;;;6.52;98.66
83023;BME280;72838;51.820;4.260;2023-11-18T03:40:08;102097.25;;;5.36;97.68
83023;BME280;72838;51.820;4.260;2023-11-18T03:42:41;102252.00;;;6.35;98.23
83023;BME280;72838;51.820;4.260;2023-11-18T03:45:07;102225.00;;;6.19;97.48
83023;BME280;72838;51.820;4.260;2023-11-18T03:47:34;102089.56;;;5.16;98.01
83023;BME280;72838;51.820;4.260;2023-11-18T03:50:00;102301.25;;;6.57;98.14
83023;BME280;72838;51.820;4.260;2023-11-18T03:52:25;102280.16;;;6.44;97.56
83023;BME280;72838;51.820;4.260;2023-11-18T03:55:15;102022.91;;;4.97;97.09
83023;BME280;72838;51.820;4.260;2023-11-18T03:57:41;102125.34;;;5.47;97.20
83023;BME280;72838;51.820;4.260;2023-11-18T04:00:07;102116.53;;;5.32;97.21
83023;BME280;72838;51.820;4.260;2023-11-18T04:02:32;102218.78;;;6.21;97.81
83023;BME280;72838;51.820;4.260;2023-11-18T04:05:01;102291.75;;;6.56;97.80
83023;BME280;72838;51.820;4.260;2023-11-18T04:07:26;102094.50;;;5.56;97.87
83023;BME280;72838;51.820;4.260;2023-11-18T04:09:53;102246.47;;;6.41;97.69
83023;BME280;72838;51.820;4.260;2023-11-18T04:12:19;102295.19;;;6.56;97.72
83023;BME280;72838;51.820;4.260;2023-11-18T04:14:44;102076.19;;;5.41;97.34
83023;BME280;72838;51.820;4.260;2023-11-18T04:17:10;102012.94;;;5.23;97.10
83023;BME280;72838;51.820;4.260;2023-11-18T04:19:35;102261.06;;;6.61;97.46
83023;BME280;72838;51.820;4.260;2023-11-18T04:22:03;102235.59;;;6.66;97.22
83023;BME280;72838;51.820;4.260;2023-11-18T04:24:30;102238.97;;;6.68;96.32
83023;BME280;72838;51.820;4.260;2023-11-18T04:26:58;102217.72;;;6.58;96.48
83023;BME280;72838;51.820;4.260;2023-11-18T04:29:23;102099.69;;;5.73;96.14
83023;BME280;72838;51.820;4.260;2023-11-18T04:31:49;102127.34;;;5.76;95.84
83023;BME280;72838;51.820;4.260;2023-11-18T04:34:14;102158.28;;;6.16;96.73
83023;BME280;72838;51.820;4.260;2023-11-18T04:36:41;102167.28;;;5.94;95.86
83023;BME280;72838;51.820;4.260;2023-11-18T04:39:10;102182.84;;;6.28;96.11
83023;BME280;72838;51.820;4.260;2023-11-18T04:41:38;102266.97;;;6.64;96.30
83023;BME280;72838;51.820;4.260;2023-11-18T04:44:03;102155.88;;;6.29;95.98
83023;BME280;72838;51.820;4.260;2023-11-18T04:46:29;102122.31;;;6.23;95.74
83023;BME280;72838;51.820;4.260;2023-11-18T04:49:02;102220.06;;;6.64;96.06
83023;BME280;72838;51.820;4.260;2023-11-18T04:51:27;102021.78;;;5.53;95.66
83023;BME280;72838;51.820;4.260;2023-11-18T04:54:05;102200.63;;;6.70;96.39
83023;BME280;72838;51.820;4.260;2023-11-18T04:56:36;102190.69;;;6.43;95.86
83023;BME280;72838;51.820;4.260;2023-11-18T04:59:02;102068.56;;;6.05;95.96
83023;BME280;72838;51.820;4.260;2023-11-18T05:01:29;102172.09;;;6.67;95.99
83023;BME280;72838;51.820;4.260;2023-11-18T05:03:55;102109.47;;;6.35;95.94
83023;BME280;72838;51.820;4.260;2023-11-18T05:06:20;102164.78;;;6.73;96.17
83023;BME280;72838;51.820;4.260;2023-11-18T05:08:46;102120.03;;;6.49;96.42
83023;BME280;72838;51.820;4.260;2023-11-18T05:11:19;102014.31;;;5.80;96.20
83023;BME280;72838;51.820;4.260;2023-11-18T05:14:00;102154.34;;;6.58;96.71
83023;BME280;72838;51.820;4.260;2023-11-18T05:16:37;102175.22;;;6.73;96.44
83023;BME280;72838;51.820;4.260;2023-11-18T05:19:08;102213.91;;;6.81;96.42
83023;BME280;72838;51.820;4.260;2023-11-18T05:21:33;102035.22;;;5.79;95.57
83023;BME280;72838;51.820;4.260;2023-11-18T05:23:58;101957.06;;;5.63;95.29
83023;BME280;72838;51.820;4.260;2023-11-18T05:26:24;102156.53;;;6.81;96.08
83023;BME280;72838;51.820;4.260;2023-11-18T05:28:49;102044.00;;;6.10;96.23
83023;BME280;72838;51.820;4.260;2023-11-18T05:31:15;102118.34;;;6.48;96.34
83023;BME280;72838;51.820;4.260;2023-11-18T05:33:53;101985.75;;;5.79;96.00
83023;BME280;72838;51.820;4.260;2023-11-18T05:36:23;101939.91;;;5.43;96.12
83023;BME280;72838;51.820;4.260;2023-11-18T05:39:02;102213.16;;;6.79;95.48
83023;BME280;72838;51.820;4.260;2023-11-18T05:41:37;102010.59;;;6.01;95.79
83023;BME280;72838;51.820;4.260;2023-11-18T05:44:05;101992.63;;;5.97;96.03
83023;BME280;72838;51.820;4.260;2023-11-18T05:46:34;102072.84;;;6.54;95.89
83023;BME280;72838;51.820;4.260;2023-11-18T05:49:02;102056.63;;;6.49;96.38
83023;BME280;72838;51.820;4.260;2023-11-18T05:54:39;102167.38;;;6.58;97.14
83023;BME280;72838;51.820;4.260;2023-11-18T05:57:04;102112.63;;;6.58;96.87
83023;BME280;72838;51.820;4.260;2023-11-18T05:59:29;102102.13;;;6.59;97.00
83023;BME280;72838;51.820;4.260;2023-11-18T06:01:55;102110.47;;;6.66;97.83
83023;BME280;72838;51.820;4.260;2023-11-18T06:04:26;102108.94;;;6.77;96.65
83023;BME280;72838;51.820;4.260;2023-11-18T06:06:52;101908.88;;;5.56;96.89
83023;BME280;72838;51.820;4.260;2023-11-18T06:09:17;101921.09;;;5.71;96.80
83023;BME280;72838;51.820;4.260;2023-11-18T06:11:49;102017.09;;;6.25;95.98
83023;BME280;72838;51.820;4.260;2023-11-18T06:14:21;102169.94;;;6.90;95.52
83023;BME280;72838;51.820;4.260;2023-11-18T06:16:58;102054.19;;;6.46;96.46
83023;BME280;72838;51.820;4.260;2023-11-18T06:19:24;102028.66;;;6.04;95.85
83023;BME280;72838;51.820;4.260;2023-11-18T06:21:49;101941.41;;;5.80;95.92
83023;BME280;72838;51.820;4.260;2023-11-18T06:24:15;101937.66;;;5.86;95.55
83023;BME280;72838;51.820;4.260;2023-11-18T06:26:42;101912.47;;;5.53;95.27
83023;BME280;72838;51.820;4.260;2023-11-18T06:29:07;101931.56;;;5.54;96.18
83023;BME280;72838;51.820;4.260;2023-11-18T06:31:33;102072.94;;;6.68;95.82
83023;BME280;72838;51.820;4.260;2023-11-18T06:34:04;101905.25;;;5.43;95.92
83023;BME280;72838;51.820;4.260;2023-11-18T06:36:29;102077.25;;;6.53;95.62
83023;BME280;72838;51.820;4.260;2023-11-18T06:38:56;102028.53;;;6.38;96.59
83023;BME280;72838;51.820;4.260;2023-11-18T06:41:27;102049.72;;;6.48;96.40
83023;BME280;72838;51.820;4.260;2023-11-18T06:43:59;101948.81;;;5.88;95.84
83023;BME280;72838;51.820;4.260;2023-11-18T06:46:37;101951.47;;;5.70;96.17
83023;BME280;72838;51.820;4.260;2023-11-18T06:49:05;102095.22;;;6.89;95.89
83023;BME280;72838;51.820;4.260;2023-11-18T06:51:33;102043.34;;;6.38;95.84
83023;BME280;72838;51.820;4.260;2023-11-18T06:54:09;101951.13;;;5.94;95.14
83023;BME280;72838;51.820;4.260;2023-11-18T06:56:42;102091.50;;;6.93;95.90
83023;BME280;72838;51.820;4.260;2023-11-18T06:59:08;102068.06;;;6.78;95.90
83023;BME280;72838;51.820;4.260;2023-11-18T07:01:46;101986.44;;;6.30;95.84
83023;BME280;72838;51.820;4.260;2023-11-18T07:04:15;102059.63;;;6.73;95.31
83023;BME280;72838;51.820;4.260;2023-11-18T07:06:40;102122.91;;;6.76;95.75
83023;BME280;72838;51.820;4.260;2023-11-18T07:09:07;101909.25;;;5.81;95.30
83023;BME280;72838;51.820;4.260;2023-11-18T07:11:51;101873.34;;;5.55;95.41
83023;BME280;72838;51.820;4.260;2023-11-18T07:14:22;102129.13;;;6.89;95.72
83023;BME280;72838;51.820;4.260;2023-11-18T07:16:47;102017.69;;;6.46;95.04
83023;BME280;72838;51.820;4.260;2023-11-18T07:19:16;101982.44;;;5.92;95.69
83023;BME280;72838;51.820;4.260;2023-11-18T07:22:02;101965.94;;;6.24;95.61
83023;BME280;72838;51.820;4.260;2023-11-18T07:28:14;101996.59;;;6.19;95.72
83023;BME280;72838;51.820;4.260;2023-11-18T07:30:54;101877.91;;;5.51;96.14
83023;BME280;72838;51.820;4.260;2023-11-18T07:33:22;101781.59;;;5.20;96.34
83023;BME280;72838;51.820;4.260;2023-11-18T07:35:51;102103.03;;;7.05;96.29
83023;BME280;72838;51.820;4.260;2023-11-18T07:38:17;102059.28;;;6.94;96.44
83023;BME280;72838;51.820;4.260;2023-11-18T07:40:57;101886.66;;;5.82;96.22
83023;BME280;72838;51.820;4.260;2023-11-18T07:43:23;101958.28;;;6.37;95.49
83023;BME280;72838;51.820;4.260;2023-11-18T07:45:48;101930.88;;;5.99;96.52
83023;BME280;72838;51.820;4.260;2023-11-18T07:48:34;101792.03;;;5.36;96.09
83023;BME280;72838;51.820;4.260;2023-11-18T07:51:00;101873.78;;;5.47;96.32
83023;BME280;72838;51.820;4.260;2023-11-18T07:53:35;101950.03;;;6.44;96.58
83023;BME280;72838;51.820;4.260;2023-11-18T07:56:04;101892.03;;;5.79;96.75
83023;BME280;72838;51.820;4.260;2023-11-18T07:58:31;101880.13;;;5.90;96.76
83023;BME280;72838;51.820;4.260;2023-11-18T08:01:03;102063.94;;;6.74;97.31
83023;BME280;72838;51.820;4.260;2023-11-18T08:03:33;102004.81;;;6.59;96.95
83023;BME280;72838;51.820;4.260;2023-11-18T08:05:59;101873.50;;;5.85;97.18
83023;BME280;72838;51.820;4.260;2023-11-18T08:08:34;101995.16;;;6.61;97.30
83023;BME280;72838;51.820;4.260;2023-11-18T08:11:02;101986.34;;;6.32;97.10
83023;BME280;72838;51.820;4.260;2023-11-18T08:13:41;102110.09;;;7.03;97.26
83023;BME280;72838;51.820;4.260;2023-11-18T08:16:09;101913.81;;;6.09;96.93
83023;BME280;72838;51.820;4.260;2023-11-18T08:18:34;102085.53;;;7.07;97.33
83023;BME280;72838;51.820;4.260;2023-11-18T08:21:15;101938.00;;;6.42;97.78
83023;BME280;72838;51.820;4.260;2023-11-18T08:23:53;101859.81;;;5.97;97.68
83023;BME280;72838;51.820;4.260;2023-11-18T08:26:30;101738.19;;;5.05;97.15
83023;BME280;72838;51.820;4.260;2023-11-18T08:29:02;102043.53;;;6.96;97.95
83023;BME280;72838;51.820;4.260;2023-11-18T08:37:38;101853.34;;;6.04;98.51
83023;BME280;72838;51.820;4.260;2023-11-18T08:50:05;101729.97;;;5.59;98.74
83023;BME280;72838;51.820;4.260;2023-11-18T09:06:42;101776.56;;;5.95;98.92
83023;BME280;72838;51.820;4.260;2023-11-18T09:09:14;101634.75;;;5.41;98.64
83023;BME280;72838;51.820;4.260;2023-11-18T09:11:56;101844.38;;;6.83;98.64
83023;BME280;72838;51.820;4.260;2023-11-18T09:14:30;101697.41;;;5.68;98.15
83023;BME280;72838;51.820;4.260;2023-11-18T09:16:56;101654.00;;;5.68;98.57
83023;BME280;72838;51.820;4.260;2023-11-18T09:19:41;101854.44;;;6.89;99.45
83023;BME280;72838;51.820;4.260;2023-11-18T09:22:24;101801.06;;;6.36;99.03
83023;BME280;72838;51.820;4.260;2023-11-18T09:32:03;101912.78;;;7.16;99.17
83023;BME280;72838;51.820;4.260;2023-11-18T09:35:00;101625.63;;;5.94;99.06
83023;BME280;72838;51.820;4.260;2023-11-18T09:37:33;101715.09;;;6.50;99.07
83023;BME280;72838;51.820;4.260;2023-11-18T09:40:13;101809.97;;;6.62;99.17
83023;BME280;72838;51.820;4.260;2023-11-18T09:43:10;101884.72;;;7.62;99.65
83023;BME280;72838;51.820;4.260;2023-11-18T09:46:26;101887.81;;;7.54;99.40
83023;BME280;72838;51.820;4.260;2023-11-18T09:55:07;101870.25;;;7.70;99.72
83023;BME280;72838;51.820;4.260;2023-11-18T09:58:09;101676.75;;;6.38;99.25
83023;BME280;72838;51.820;4.260;2023-11-18T10:00:58;101614.94;;;5.98;99.94
83023;BME280;72838;51.820;4.260;2023-11-18T10:03:30;101781.03;;;6.95;99.58
83023;BME280;72838;51.820;4.260;2023-11-18T10:06:02;101582.88;;;5.82;99.99
83023;BME280;72838;51.820;4.260;2023-11-18T10:08:50;101806.94;;;7.26;100.00
83023;BME280;72838;51.820;4.260;2023-11-18T10:11:43;101586.09;;;6.01;100.00
83023;BME280;72838;51.820;4.260;2023-11-18T10:14:20;101780.75;;;7.27;100.00
83023;BME280;72838;51.820;4.260;2023-11-18T10:17:17;101830.97;;;7.72;100.00
83023;BME280;72838;51.820;4.260;2023-11-18T10:19:57;101811.56;;;7.35;100.00
83023;BME280;72838;51.820;4.260;2023-11-18T10:23:05;101604.53;;;6.12;100.00
83023;BME280;72838;51.820;4.260;2023-11-18T11:27:38;101454.19;;;6.55;100.00
83023;BME280;72838;51.820;4.260;2023-11-18T11:46:49;101347.38;;;6.80;100.00
83023;BME280;72838;51.820;4.260;2023-11-18T11:56:17;101386.50;;;6.93;100.00
83023;BME280;72838;51.820;4.260;2023-11-18T11:59:03;101402.25;;;7.29;100.00
83023;BME280;72838;51.820;4.260;2023-11-18T12:01:36;101325.53;;;6.69;100.00
83023;BME280;72838;51.820;4.260;2023-11-18T12:04:50;101324.81;;;6.79;100.00
83023;BME280;72838;51.820;4.260;2023-11-18T12:07:42;101553.66;;;8.17;100.00
83023;BME280;72838;51.820;4.260;2023-11-18T12:10:18;101484.06;;;7.78;100.00
83023;BME280;72838;51.820;4.260;2023-11-18T12:33:11;101399.72;;;7.53;100.00
83023;BME280;72838;51.820;4.260;2023-11-18T12:42:20;101428.59;;;8.24;100.00
83023;BME280;72838;51.820;4.260;2023-11-18T12:48:14;101275.16;;;6.93;100.00
83023;BME280;72838;51.820;4.260;2023-11-18T12:51:05;101338.44;;;7.46;100.00
83023;BME280;72838;51.820;4.260;2023-11-18T12:53:44;101436.38;;;8.25;100.00
83023;BME280;72838;51.820;4.260;2023-11-18T12:56:47;101356.97;;;7.66;100.00
83023;BME280;72838;51.820;4.260;2023-11-18T12:59:32;101307.97;;;7.46;100.00
83023;BME280;72838;51.820;4.260;2023-11-18T13:05:21;101273.97;;;7.22;100.00
83023;BME280;72838;51.820;4.260;2023-11-18T13:11:08;101224.75;;;7.18;100.00
83023;BME280;72838;51.820;4.260;2023-11-18T13:13:42;101328.94;;;7.81;100.00
83023;BME280;72838;51.820;4.260;2023-11-18T13:16:17;101143.41;;;7.00;100.00
83023;BME280;72838;51.820;4.260;2023-11-18T13:18:58;101105.88;;;6.90;100.00
83023;BME280;72838;51.820;4.260;2023-11-18T13:21:23;101376.94;;;8.51;100.00
83023;BME280;72838;51.820;4.260;2023-11-18T13:23:52;101249.72;;;7.69;100.00
83023;BME280;72838;51.820;4.260;2023-11-18T13:26:27;101348.81;;;8.54;100.00
83023;BME280;72838;51.820;4.260;2023-11-18T13:28:52;101222.03;;;7.90;100.00
83023;BME280;72838;51.820;4.260;2023-11-18T13:31:34;101177.84;;;7.29;100.00
83023;BME280;72838;51.820;4.260;2023-11-18T13:34:28;101322.41;;;8.57;100.00
83023;BME280;72838;51.820;4.260;2023-11-18T13:43:44;101120.66;;;7.26;100.00
83023;BME280;72838;51.820;4.260;2023-11-18T13:46:11;101315.53;;;8.67;100.00
83023;BME280;72838;51.820;4.260;2023-11-18T13:48:47;101319.84;;;8.68;100.00
83023;BME280;72838;51.820;4.260;2023-11-18T13:51:14;101192.03;;;8.07;100.00
83023;BME280;72838;51.820;4.260;2023-11-18T13:57:02;101182.03;;;7.90;100.00
83023;BME280;72838;51.820;4.260;2023-11-18T13:59:31;101226.38;;;8.37;100.00
83023;BME280;72838;51.820;4.260;2023-11-18T14:01:59;101194.28;;;8.00;100.00
83023;BME280;72838;51.820;4.260;2023-11-18T14:04:36;101288.69;;;8.76;100.00
83023;BME280;72838;51.820;4.260;2023-11-18T14:07:04;101149.06;;;8.11;100.00
83023;BME280;72838;51.820;4.260;2023-11-18T14:09:40;101200.06;;;8.28;100.00
83023;BME280;72838;51.820;4.260;2023-11-18T14:12:13;101065.69;;;7.51;100.00
83023;BME280;72838;51.820;4.260;2023-11-18T14:14:51;101152.09;;;8.29;100.00
83023;BME280;72838;51.820;4.260;2023-11-18T14:17:49;101120.69;;;8.17;100.00
83023;BME280;72838;51.820;4.260;2023-11-18T14:20:18;101247.44;;;8.80;100.00
83023;BME280;72838;51.820;4.260;2023-11-18T14:22:51;101087.66;;;8.05;100.00
83023;BME280;72838;51.820;4.260;2023-11-18T14:25:27;101126.78;;;8.29;100.00
83023;BME280;72838;51.820;4.260;2023-11-18T14:27:56;101073.38;;;7.76;100.00
83023;BME280;72838;51.820;4.260;2023-11-18T14:33:17;101215.47;;;8.87;100.00
83023;BME280;72838;51.820;4.260;2023-11-18T14:39:36;101076.00;;;7.87;100.00
83023;BME280;72838;51.820;4.260;2023-11-18T14:42:02;101126.63;;;8.19;100.00
83023;BME280;72838;51.820;4.260;2023-11-18T14:44:46;101081.53;;;8.29;100.00
83023;BME280;72838;51.820;4.260;2023-11-18T14:47:11;101005.00;;;7.82;100.00
83023;BME280;72838;51.820;4.260;2023-11-18T14:49:45;101042.41;;;8.05;100.00
83023;BME280;72838;51.820;4.260;2023-11-18T14:52:11;101040.97;;;8.01;100.00
83023;BME280;72838;51.820;4.260;2023-11-18T14:54:36;101079.22;;;8.24;100.00
83023;BME280;72838;51.820;4.260;2023-11-18T14:57:04;100964.88;;;7.72;100.00
83023;BME280;72838;51.820;4.260;2023-11-18T14:59:30;101053.34;;;8.21;100.00
83023;BME280;72838;51.820;4.260;2023-11-18T15:02:05;101048.97;;;8.10;100.00
83023;BME280;72838;51.820;4.260;2023-11-18T15:04:33;101088.41;;;8.52;100.00
83023;BME280;72838;51.820;4.260;2023-11-18T15:06:58;101041.69;;;8.14;100.00
83023;BME280;72838;51.820;4.260;2023-11-18T15:09:24;101171.09;;;9.08;100.00
83023;BME280;72838;51.820;4.260;2023-11-18T15:11:49;101080.09;;;8.58;100.00
83023;BME280;72838;51.820;4.260;2023-11-18T15:14:27;101013.56;;;8.29;100.00
83023;BME280;72838;51.820;4.260;2023-11-18T15:16:53;101056.91;;;8.64;100.00
83023;BME280;72838;51.820;4.260;2023-11-18T15:19:33;101066.53;;;8.53;100.00
83023;BME280;72838;51.820;4.260;2023-11-18T15:21:59;101028.41;;;8.50;100.00
83023;BME280;72838;51.820;4.260;2023-11-18T15:24:24;101022.78;;;8.55;100.00
83023;BME280;72838;51.820;4.260;2023-11-18T15:26:49;101046.78;;;8.71;100.00
83023;BME280;72838;51.820;4.260;2023-11-18T15:29:16;100924.75;;;7.95;100.00
83023;BME280;72838;51.820;4.260;2023-11-18T15:31:41;101074.91;;;8.89;100.00
83023;BME280;72838;51.820;4.260;2023-11-18T15:34:07;101051.19;;;8.70;100.00
83023;BME280;72838;51.820;4.260;2023-11-18T15:36:53;101124.97;;;9.28;100.00
83023;BME280;72838;51.820;4.260;2023-11-18T15:39:20;101147.19;;;9.33;100.00
83023;BME280;72838;51.820;4.260;2023-11-18T15:41:57;100971.25;;;8.24;100.00
83023;BME280;72838;51.820;4.260;2023-11-18T15:44:26;101021.84;;;8.67;100.00
83023;BME280;72838;51.820;4.260;2023-11-18T15:46:54;100964.50;;;8.32;100.00
83023;BME280;72838;51.820;4.260;2023-11-18T15:49:19;100933.41;;;8.29;100.00
83023;BME280;72838;51.820;4.260;2023-11-18T15:51:45;100982.13;;;8.73;100.00
83023;BME280;72838;51.820;4.260;2023-11-18T15:54:20;100964.75;;;8.72;100.00
83023;BME280;72838;51.820;4.260;2023-11-18T15:56:45;100970.31;;;8.78;100.00
83023;BME280;72838;51.820;4.260;2023-11-18T15:59:14;101096.19;;;9.59;100.00
83023;BME280;72838;51.820;4.260;2023-11-18T16:01:39;100985.28;;;8.87;100.00
83023;BME280;72838;51.820;4.260;2023-11-18T16:04:05;100823.50;;;8.19;100.00
83023;BME280;72838;51.820;4.260;2023-11-18T16:06:31;101063.97;;;9.68;100.00
83023;BME280;72838;51.820;4.260;2023-11-18T16:09:03;101104.16;;;9.78;100.00
83023;BME280;72838;51.820;4.260;2023-11-18T16:11:31;101072.22;;;9.85;100.00
83023;BME280;72838;51.820;4.260;2023-11-18T16:13:57;100969.84;;;9.05;100.00
83023;BME280;72838;51.820;4.260;2023-11-18T16:16:30;101066.34;;;10.02;100.00
83023;BME280;72838;51.820;4.260;2023-11-18T16:18:55;100903.13;;;9.20;100.00
83023;BME280;72838;51.820;4.260;2023-11-18T16:21:21;101012.69;;;9.96;100.00
83023;BME280;72838;51.820;4.260;2023-11-18T16:23:47;100835.00;;;9.01;100.00
83023;BME280;72838;51.820;4.260;2023-11-18T16:26:12;101045.69;;;10.29;100.00
83023;BME280;72838;51.820;4.260;2023-11-18T16:28:59;100823.25;;;8.95;100.00